Time;durP1;ratioP1;P1;durP2;ratioP2;P2;SDS_P1;SDS_P2;PMS_P1;PMS_P2;Temp;Humidity;BMP_temperature;BMP_pressure;BME280_temperature;BME280_humidity;BME280_pressure;Samples;Min_cycle;Max_cycle;Signal;HPM_P1;HPM_P2
2023/01/31 00:01:44;;;;;;;;;;;20.40;61.50;;;;;;1489800;78;1911;-68
2023/01/31 00:03:47;;;;;;;;;;;20.40;61.60;;;;;;1489669;78;744;-69
2023/01/31 00:05:48;;;;;;;;;;;20.40;61.60;;;;;;1486657;78;1575;-70
2023/01/31 00:07:50;;;;;;;;;;;20.30;61.70;;;;;;1485255;78;880;-72
2023/01/31 00:09:52;;;;;;;;;;;20.40;61.70;;;;;;1482119;78;872;-69
2023/01/31 00:11:54;;;;;;;;;;;20.40;61.70;;;;;;1482213;78;1101;-69
2023/01/31 00:13:57;;;;;;;;;;;20.40;61.70;;;;;;1483089;78;789;-70
2023/01/31 00:15:59;;;;;;;;;;;20.30;61.80;;;;;;1486764;78;772;-69
2023/01/31 00:18:01;;;;;;;;;;;20.40;61.70;;;;;;1490065;78;818;-69
2023/01/31 00:20:02;;;;;;;;;;;20.40;61.70;;;;;;1487592;78;1936;-69
2023/01/31 00:22:04;;;;;;;;;;;20.40;61.60;;;;;;1488886;78;1163;-69
2023/01/31 00:24:06;;;;;;;;;;;20.40;61.60;;;;;;1482136;78;735;-70
2023/01/31 00:26:18;;;;;;;;;;;20.40;61.70;;;;;;1482180;78;695;-69
2023/01/31 00:28:20;;;;;;;;;;;20.40;61.60;;;;;;1480119;78;805;-70
2023/01/31 00:30:22;;;;;;;;;;;20.40;61.60;;;;;;1482279;78;709;-70
2023/01/31 00:32:25;;;;;;;;;;;20.40;61.70;;;;;;1501952;71;228238;-57
2023/01/31 00:34:27;;;;;;;;;;;20.40;61.50;;;;;;1530698;76;582;-57
2023/01/31 00:36:30;;;;;;;;;;;20.40;61.50;;;;;;1535213;76;609;-55
2023/01/31 00:38:32;;;;;;;;;;;20.40;61.60;;;;;;1506153;77;665;-57
2023/01/31 00:40:34;;;;;;;;;;;20.40;61.60;;;;;;1544480;75;1943;-58
2023/01/31 00:42:36;;;;;;;;;;;20.40;61.60;;;;;;1532668;76;721;-58
2023/01/31 00:44:37;;;;;;;;;;;20.50;61.50;;;;;;1517913;76;605;-57
2023/01/31 00:46:39;;;;;;;;;;;20.50;61.40;;;;;;1525490;76;1420;-56
2023/01/31 00:48:41;;;;;;;;;;;20.60;61.30;;;;;;1532674;76;742;-59
2023/01/31 00:50:43;;;;;;;;;;;20.60;61.00;;;;;;1527162;76;1108;-57
2023/01/31 00:52:45;;;;;;;;;;;20.50;61.00;;;;;;1518373;76;792;-59
2023/01/31 00:54:47;;;;;;;;;;;20.60;61.00;;;;;;1519517;76;589;-59
2023/01/31 00:56:49;;;;;;;;;;;20.70;61.00;;;;;;1543660;76;730;-57
2023/01/31 00:58:51;;;;;;;;;;;20.60;60.90;;;;;;1525022;76;841;-58
2023/01/31 01:00:52;;;;;;;;;;;20.60;60.90;;;;;;1531653;75;1938;-58
2023/01/31 01:02:54;;;;;;;;;;;20.50;61.00;;;;;;1523043;76;579;-59
2023/01/31 01:04:56;;;;;;;;;;;20.50;61.00;;;;;;1520195;76;754;-58
2023/01/31 01:06:58;;;;;;;;;;;20.40;61.00;;;;;;1522851;76;695;-58
2023/01/31 01:09:00;;;;;;;;;;;20.50;61.10;;;;;;1528487;76;709;-59
2023/01/31 01:11:06;;;;;;;;;;;20.50;61.00;;;;;;1526179;75;1096;-58
2023/01/31 01:13:08;;;;;;;;;;;20.50;61.00;;;;;;1515765;76;788;-57
2023/01/31 01:15:10;;;;;;;;;;;20.50;61.00;;;;;;1525816;76;1503;-59
2023/01/31 01:17:11;;;;;;;;;;;20.50;61.00;;;;;;1524389;76;792;-59
2023/01/31 01:19:15;;;;;;;;;;;20.50;61.00;;;;;;1523405;76;1146;-59
2023/01/31 01:21:18;;;;;;;;;;;20.50;60.90;;;;;;1521095;76;1920;-58
2023/01/31 01:23:19;;;;;;;;;;;20.50;60.90;;;;;;1523799;76;686;-59
2023/01/31 01:25:21;;;;;;;;;;;20.50;61.10;;;;;;1524682;76;706;-57
2023/01/31 01:27:23;;;;;;;;;;;20.50;61.30;;;;;;1531595;76;739;-57
2023/01/31 01:29:25;;;;;;;;;;;20.60;61.20;;;;;;1532840;74;1464;-56
2023/01/31 01:31:32;;;;;;;;;;;20.50;61.20;;;;;;1540984;76;725;-57
2023/01/31 01:33:31;;;;;;;;;;;20.60;60.90;;;;;;1547612;75;1461;-56
2023/01/31 01:35:33;;;;;;;;;;;20.60;60.90;;;;;;1534375;76;796;-57
2023/01/31 01:37:35;;;;;;;;;;;20.60;60.90;;;;;;1528776;76;730;-57
2023/01/31 01:39:37;;;;;;;;;;;20.60;60.70;;;;;;1524885;76;1171;-56
2023/01/31 01:41:40;;;;;;;;;;;20.60;60.70;;;;;;1535545;76;1925;-57
2023/01/31 01:43:55;;;;;;;;;;;20.60;60.70;;;;;;1526347;76;1494;-58
2023/01/31 01:45:57;;;;;;;;;;;20.60;60.70;;;;;;1519304;76;1726;-58
2023/01/31 01:47:59;;;;;;;;;;;20.60;60.80;;;;;;1519851;76;731;-57
2023/01/31 01:50:06;;;;;;;;;;;20.60;60.80;;;;;;1527575;76;1134;-59
2023/01/31 01:52:08;;;;;;;;;;;20.60;60.90;;;;;;1525682;76;725;-59
2023/01/31 01:54:12;;;;;;;;;;;20.70;60.80;;;;;;1526605;76;740;-59
2023/01/31 01:56:15;;;;;;;;;;;20.80;60.50;;;;;;1528234;76;701;-57
2023/01/31 01:58:22;;;;;;;;;;;20.80;60.50;;;;;;1521463;76;1506;-59
2023/01/31 02:00:25;;;;;;;;;;;20.80;60.40;;;;;;1529472;76;1107;-58
2023/01/31 02:02:27;;;;;;;;;;;20.80;60.30;;;;;;1523238;76;1938;-58
2023/01/31 02:04:30;;;;;;;;;;;20.90;60.30;;;;;;1536281;76;1076;-57
2023/01/31 02:06:32;;;;;;;;;;;20.90;60.30;;;;;;1529989;76;702;-57
2023/01/31 02:08:36;;;;;;;;;;;20.90;60.20;;;;;;1541630;76;709;-57
2023/01/31 02:10:39;;;;;;;;;;;20.90;60.10;;;;;;1526174;76;1089;-57
2023/01/31 02:12:41;;;;;;;;;;;21.00;60.00;;;;;;1485994;76;1451;-56
2023/01/31 02:14:43;;;;;;;;;;;20.90;60.00;;;;;;1526714;76;607;-56
2023/01/31 02:16:45;;;;;;;;;;;20.90;60.00;;;;;;1505932;77;1356;-58
2023/01/31 02:18:47;;;;;;;;;;;20.90;60.10;;;;;;1532791;76;787;-58
2023/01/31 02:20:59;;;;;;;;;;;20.90;60.10;;;;;;1527826;76;1954;-58
2023/01/31 02:23:18;;;;;;;;;;;20.90;60.10;;;;;;1525543;76;766;-58
2023/01/31 02:25:37;;;;;;;;;;;20.80;60.00;;;;;;1523692;76;1471;-56
2023/01/31 02:27:52;;;;;;;;;;;20.80;60.10;;;;;;1519150;76;1471;-57
2023/01/31 02:30:12;;;;;;;;;;;20.80;60.20;;;;;;1529613;76;1808;-58
2023/01/31 02:32:32;;;;;;;;;;;20.80;60.10;;;;;;1517648;76;761;-57
2023/01/31 02:34:36;;;;;;;;;;;20.90;60.30;;;;;;1535553;76;1061;-58
2023/01/31 02:36:39;;;;;;;;;;;20.80;60.20;;;;;;1527510;76;1772;-61
2023/01/31 02:38:43;;;;;;;;;;;20.70;60.40;;;;;;1538351;76;1719;-60
2023/01/31 02:40:49;;;;;;;;;;;20.80;60.40;;;;;;1519079;76;1368;-56
2023/01/31 02:43:09;;;;;;;;;;;20.90;60.30;;;;;;1526626;76;732;-58
2023/01/31 02:45:16;;;;;;;;;;;20.90;60.40;;;;;;1523670;76;688;-58
2023/01/31 02:47:25;;;;;;;;;;;20.90;60.40;;;;;;1518166;76;1846;-58
2023/01/31 02:49:34;;;;;;;;;;;20.90;60.50;;;;;;1525127;76;1746;-60
2023/01/31 02:51:40;;;;;;;;;;;20.90;60.40;;;;;;1477521;77;1018;-59
2023/01/31 02:53:44;;;;;;;;;;;20.90;60.30;;;;;;1522507;76;1680;-60
2023/01/31 02:58:14;;;;;;;;;;;20.90;60.30;;;;;;1524585;76;1689;-60
2023/01/31 03:00:16;;;;;;;;;;;20.90;60.30;;;;;;1525117;76;1114;-58
2023/01/31 03:02:18;;;;;;;;;;;20.90;60.30;;;;;;1525591;76;1919;-59
2023/01/31 03:04:20;;;;;;;;;;;20.90;60.20;;;;;;1529440;76;705;-58
2023/01/31 03:06:23;;;;;;;;;;;20.90;60.20;;;;;;1527351;76;744;-58
2023/01/31 03:08:25;;;;;;;;;;;20.90;60.10;;;;;;1523184;76;1489;-57
2023/01/31 03:10:28;;;;;;;;;;;20.90;60.00;;;;;;1527057;76;1120;-57
2023/01/31 03:12:35;;;;;;;;;;;21.00;60.00;;;;;;1524793;76;2266;-57
2023/01/31 03:14:44;;;;;;;;;;;20.90;60.10;;;;;;1520772;76;1974;-59
2023/01/31 03:19:14;;;;;;;;;;;20.80;60.40;;;;;;1515073;76;1668;-57
2023/01/31 03:21:17;;;;;;;;;;;20.80;60.40;;;;;;1529150;76;1906;-59
2023/01/31 03:23:20;;;;;;;;;;;20.70;60.60;;;;;;1523666;76;641;-58
2023/01/31 03:25:22;;;;;;;;;;;20.70;60.70;;;;;;1526771;76;784;-58
2023/01/31 03:27:24;;;;;;;;;;;20.70;60.70;;;;;;1521906;76;745;-57
2023/01/31 03:29:27;;;;;;;;;;;20.60;60.70;;;;;;1523888;76;1100;-58
2023/01/31 03:31:30;;;;;;;;;;;20.60;60.70;;;;;;1518886;76;732;-60
2023/01/31 03:33:33;;;;;;;;;;;20.60;60.80;;;;;;1529821;76;1708;-59
2023/01/31 03:35:35;;;;;;;;;;;20.70;60.90;;;;;;1522031;76;1498;-57
2023/01/31 03:37:37;;;;;;;;;;;20.70;61.00;;;;;;1525565;76;664;-57
2023/01/31 03:39:44;;;;;;;;;;;20.60;60.90;;;;;;1529580;76;1203;-57
2023/01/31 03:41:52;;;;;;;;;;;20.70;61.10;;;;;;1525541;76;1904;-58
2023/01/31 03:43:57;;;;;;;;;;;20.60;61.00;;;;;;1513156;76;937;-57
2023/01/31 03:46:04;;;;;;;;;;;20.60;60.90;;;;;;1528457;76;1687;-57
2023/01/31 03:48:08;;;;;;;;;;;20.60;61.10;;;;;;1526456;76;1610;-58
2023/01/31 03:50:12;;;;;;;;;;;20.70;61.00;;;;;;1542167;76;1589;-59
2023/01/31 03:52:15;;;;;;;;;;;20.60;60.90;;;;;;1526809;76;1735;-58
2023/01/31 03:54:21;;;;;;;;;;;20.70;61.00;;;;;;1517430;77;809;-58
2023/01/31 03:56:30;;;;;;;;;;;20.70;60.90;;;;;;1530564;76;1782;-58
2023/01/31 03:58:34;;;;;;;;;;;20.70;61.00;;;;;;1517587;76;1832;-57
2023/01/31 04:00:36;;;;;;;;;;;20.70;61.00;;;;;;1525240;76;1104;-58
2023/01/31 04:02:38;;;;;;;;;;;20.70;61.00;;;;;;1533311;76;1918;-59
2023/01/31 04:04:41;;;;;;;;;;;20.80;60.80;;;;;;1515778;76;1462;-59
2023/01/31 04:06:43;;;;;;;;;;;20.80;60.80;;;;;;1527620;76;593;-58
2023/01/31 04:08:45;;;;;;;;;;;20.80;60.70;;;;;;1521642;76;569;-58
2023/01/31 04:10:47;;;;;;;;;;;20.80;60.60;;;;;;1517478;76;1171;-58
2023/01/31 04:12:48;;;;;;;;;;;20.80;60.50;;;;;;1541078;76;705;-57
2023/01/31 04:14:50;;;;;;;;;;;20.80;60.40;;;;;;1521665;76;665;-57
2023/01/31 04:16:52;;;;;;;;;;;20.80;60.40;;;;;;1521893;76;685;-57
2023/01/31 04:18:55;;;;;;;;;;;20.80;60.50;;;;;;1524676;76;1469;-57
2023/01/31 04:20:57;;;;;;;;;;;20.80;60.50;;;;;;1524483;76;1108;-57
2023/01/31 04:22:59;;;;;;;;;;;20.90;60.50;;;;;;1525046;76;1977;-56
2023/01/31 04:25:01;;;;;;;;;;;20.90;60.40;;;;;;1527253;76;725;-56
2023/01/31 04:27:02;;;;;;;;;;;20.90;60.40;;;;;;1529802;76;788;-57
2023/01/31 04:29:04;;;;;;;;;;;21.00;60.30;;;;;;1522018;76;798;-57
2023/01/31 04:31:06;;;;;;;;;;;20.90;60.30;;;;;;1526026;76;1152;-59
2023/01/31 04:33:08;;;;;;;;;;;20.90;60.30;;;;;;1521032;76;1426;-58
2023/01/31 04:35:10;;;;;;;;;;;21.00;60.40;;;;;;1525129;76;709;-56
2023/01/31 04:37:12;;;;;;;;;;;20.90;60.40;;;;;;1526834;76;704;-57
2023/01/31 04:39:14;;;;;;;;;;;20.90;60.40;;;;;;1520593;76;1143;-57
2023/01/31 04:41:16;;;;;;;;;;;20.90;60.30;;;;;;1518034;76;806;-56
2023/01/31 04:43:18;;;;;;;;;;;20.90;60.30;;;;;;1524316;76;1940;-56
2023/01/31 04:45:20;;;;;;;;;;;21.00;60.30;;;;;;1527130;76;807;-56
2023/01/31 04:47:22;;;;;;;;;;;21.00;60.20;;;;;;1525564;76;1459;-58
2023/01/31 04:49:24;;;;;;;;;;;20.90;60.20;;;;;;1522263;76;1133;-59
2023/01/31 04:51:25;;;;;;;;;;;20.90;60.10;;;;;;1523768;76;773;-56
2023/01/31 04:53:28;;;;;;;;;;;20.90;60.00;;;;;;1515822;76;680;-56
2023/01/31 04:55:29;;;;;;;;;;;20.90;60.00;;;;;;1522217;76;716;-58
2023/01/31 04:57:32;;;;;;;;;;;21.00;60.00;;;;;;1521682;76;663;-56
2023/01/31 04:59:34;;;;;;;;;;;21.00;59.90;;;;;;1523962;76;1208;-56
2023/01/31 05:01:35;;;;;;;;;;;21.00;59.80;;;;;;1524541;76;1936;-56
2023/01/31 05:03:37;;;;;;;;;;;21.00;59.80;;;;;;1521241;76;756;-57
2023/01/31 05:05:39;;;;;;;;;;;21.00;59.70;;;;;;1513738;76;747;-57
2023/01/31 05:07:41;;;;;;;;;;;21.00;59.70;;;;;;1526364;76;642;-56
2023/01/31 05:09:44;;;;;;;;;;;21.00;59.70;;;;;;1503438;77;1200;-55
2023/01/31 05:11:46;;;;;;;;;;;21.00;59.60;;;;;;1524965;76;725;-54
2023/01/31 05:13:48;;;;;;;;;;;21.00;59.60;;;;;;1518873;76;1339;-57
2023/01/31 05:15:50;;;;;;;;;;;21.00;59.60;;;;;;1522519;76;913;-57
2023/01/31 05:17:52;;;;;;;;;;;21.00;59.50;;;;;;1525354;76;737;-58
2023/01/31 05:19:55;;;;;;;;;;;21.00;59.50;;;;;;1521355;76;1149;-57
2023/01/31 05:21:59;;;;;;;;;;;21.00;59.60;;;;;;1524720;76;1924;-57
2023/01/31 05:24:02;;;;;;;;;;;21.00;59.70;;;;;;1520937;76;755;-56
2023/01/31 05:26:04;;;;;;;;;;;21.00;59.60;;;;;;1521420;76;725;-59
2023/01/31 05:28:06;;;;;;;;;;;21.00;59.60;;;;;;1526662;76;1457;-58
2023/01/31 05:30:08;;;;;;;;;;;21.00;59.50;;;;;;1530360;76;1139;-58
2023/01/31 05:32:10;;;;;;;;;;;21.00;59.50;;;;;;1524459;76;725;-56
2023/01/31 05:34:14;;;;;;;;;;;21.10;59.50;;;;;;1531596;76;645;-56
2023/01/31 05:36:16;;;;;;;;;;;21.10;59.40;;;;;;1521935;76;1510;-59
2023/01/31 05:38:18;;;;;;;;;;;21.10;59.70;;;;;;1527432;76;620;-59
2023/01/31 05:40:20;;;;;;;;;;;21.10;59.60;;;;;;1521380;76;1165;-57
2023/01/31 05:42:21;;;;;;;;;;;21.10;59.70;;;;;;1516216;76;1940;-59
2023/01/31 05:44:23;;;;;;;;;;;21.10;59.30;;;;;;1520193;76;793;-57
2023/01/31 05:46:25;;;;;;;;;;;21.20;59.60;;;;;;1525839;76;683;-58
2023/01/31 05:48:27;;;;;;;;;;;21.20;59.40;;;;;;1527207;76;721;-57
2023/01/31 05:50:29;;;;;;;;;;;21.20;59.30;;;;;;1512273;76;1183;-59
2023/01/31 05:52:31;;;;;;;;;;;21.20;59.20;;;;;;1530290;76;697;-59
2023/01/31 05:54:33;;;;;;;;;;;21.20;59.20;;;;;;1521155;76;758;-58
2023/01/31 05:56:35;;;;;;;;;;;21.20;59.10;;;;;;1525940;76;1325;-59
2023/01/31 05:58:37;;;;;;;;;;;21.10;59.20;;;;;;1527284;76;640;-59
2023/01/31 06:00:39;;;;;;;;;;;21.20;59.20;;;;;;1525797;76;1098;-59
2023/01/31 06:02:41;;;;;;;;;;;21.20;59.00;;;;;;1526824;76;1939;-58
2023/01/31 06:04:43;;;;;;;;;;;21.20;59.30;;;;;;1528297;76;643;-58
2023/01/31 06:06:45;;;;;;;;;;;21.20;59.20;;;;;;1522224;76;705;-57
2023/01/31 06:08:47;;;;;;;;;;;21.20;59.00;;;;;;1525992;76;739;-57
2023/01/31 06:10:49;;;;;;;;;;;21.30;58.90;;;;;;1523341;76;1513;-57
2023/01/31 06:12:50;;;;;;;;;;;21.40;58.80;;;;;;1531969;76;675;-59
2023/01/31 06:14:52;;;;;;;;;;;21.40;58.50;;;;;;1522924;76;816;-57
2023/01/31 06:16:54;;;;;;;;;;;21.50;57.90;;;;;;1523126;76;788;-59
2023/01/31 06:18:56;;;;;;;;;;;21.50;57.50;;;;;;1524814;76;755;-59
2023/01/31 06:20:58;;;;;;;;;;;21.50;57.10;;;;;;1524023;76;1107;-58
2023/01/31 06:23:00;;;;;;;;;;;21.60;57.30;;;;;;1521438;76;1936;-57
2023/01/31 06:25:02;;;;;;;;;;;21.60;56.90;;;;;;1528722;76;1463;-58
2023/01/31 06:27:04;;;;;;;;;;;21.50;57.10;;;;;;1529081;76;820;-59
2023/01/31 06:29:06;;;;;;;;;;;21.60;56.80;;;;;;1524093;76;807;-60
2023/01/31 06:31:08;;;;;;;;;;;21.60;56.80;;;;;;1518261;76;1075;-58
2023/01/31 06:33:11;;;;;;;;;;;21.60;56.80;;;;;;1542570;73;223447;-66
2023/01/31 06:35:13;;;;;;;;;;;21.60;56.70;;;;;;1565599;74;729;-68
2023/01/31 06:37:15;;;;;;;;;;;21.60;56.40;;;;;;1557817;75;742;-67
2023/01/31 06:39:17;;;;;;;;;;;21.60;56.80;;;;;;1567435;74;1377;-68
2023/01/31 06:41:19;;;;;;;;;;;21.60;57.10;;;;;;1561495;74;740;-68
2023/01/31 06:43:21;;;;;;;;;;;21.70;57.10;;;;;;1575927;74;1957;-67
2023/01/31 06:45:23;;;;;;;;;;;21.70;56.60;;;;;;1581668;74;794;-67
2023/01/31 06:47:25;;;;;;;;;;;21.60;56.30;;;;;;1581833;74;769;-68
2023/01/31 06:49:27;;;;;;;;;;;21.60;56.30;;;;;;1581361;74;771;-68
2023/01/31 06:51:28;;;;;;;;;;;21.60;56.30;;;;;;1571013;74;756;-68
2023/01/31 06:53:30;;;;;;;;;;;21.60;56.20;;;;;;1578935;74;1565;-68
2023/01/31 06:55:32;;;;;;;;;;;21.60;56.30;;;;;;1581417;73;720;-68
2023/01/31 06:57:34;;;;;;;;;;;21.70;56.20;;;;;;1577065;74;762;-69
2023/01/31 06:59:36;;;;;;;;;;;21.60;55.90;;;;;;1579152;75;630;-69
2023/01/31 07:01:38;;;;;;;;;;;21.60;55.90;;;;;;1583085;74;720;-69
2023/01/31 07:03:40;;;;;;;;;;;21.70;55.60;;;;;;1572374;75;1952;-68
2023/01/31 07:05:41;;;;;;;;;;;21.60;55.50;;;;;;1581194;74;772;-69
2023/01/31 07:07:43;;;;;;;;;;;21.60;55.50;;;;;;1580622;74;1612;-69
2023/01/31 07:09:45;;;;;;;;;;;21.50;55.30;;;;;;1580016;73;730;-68
2023/01/31 07:11:47;;;;;;;;;;;21.60;55.40;;;;;;1576589;74;713;-67
2023/01/31 07:13:49;;;;;;;;;;;21.60;55.40;;;;;;1580722;74;1158;-68
2023/01/31 07:15:51;;;;;;;;;;;21.60;55.20;;;;;;1582386;73;694;-67
2023/01/31 07:17:59;;;;;;;;;;;21.70;55.20;;;;;;1580986;74;692;-66
2023/01/31 07:20:01;;;;;;;;;;;21.70;55.10;;;;;;1580227;74;719;-68
2023/01/31 07:22:03;;;;;;;;;;;21.70;55.10;;;;;;1577829;74;1541;-68
2023/01/31 07:24:05;;;;;;;;;;;21.80;55.00;;;;;;1575284;73;1933;-69
2023/01/31 07:26:07;;;;;;;;;;;21.80;54.80;;;;;;1575148;74;785;-68
2023/01/31 07:28:09;;;;;;;;;;;21.70;54.80;;;;;;1581029;74;788;-69
2023/01/31 07:30:11;;;;;;;;;;;21.80;54.70;;;;;;1578926;74;756;-67
2023/01/31 07:32:13;;;;;;;;;;;21.70;54.70;;;;;;1579876;74;1158;-67
2023/01/31 07:34:15;;;;;;;;;;;21.70;54.50;;;;;;1578028;74;835;-68
2023/01/31 07:36:20;;;;;;;;;;;21.70;54.70;;;;;;1579866;74;617;-68
2023/01/31 07:38:20;;;;;;;;;;;21.60;54.70;;;;;;1578729;73;1699;-68
2023/01/31 07:40:22;;;;;;;;;;;21.70;54.70;;;;;;1582219;74;865;-68
2023/01/31 07:42:24;;;;;;;;;;;21.60;54.50;;;;;;1582355;74;1162;-69
2023/01/31 07:44:26;;;;;;;;;;;21.60;54.60;;;;;;1581175;74;1934;-68
2023/01/31 07:46:28;;;;;;;;;;;21.60;54.50;;;;;;1577793;74;789;-68
2023/01/31 07:48:30;;;;;;;;;;;21.60;54.50;;;;;;1576162;75;1540;-68
2023/01/31 07:50:32;;;;;;;;;;;21.70;54.70;;;;;;1578173;74;721;-67
2023/01/31 07:52:33;;;;;;;;;;;21.70;54.40;;;;;;1585421;73;1142;-68
2023/01/31 07:54:35;;;;;;;;;;;21.70;54.40;;;;;;1582580;74;900;-68
2023/01/31 07:56:37;;;;;;;;;;;21.70;54.30;;;;;;1578564;74;811;-68
2023/01/31 07:58:40;;;;;;;;;;;21.70;54.30;;;;;;1578176;74;811;-69
2023/01/31 08:05:22;;;;;;;;;;;21.70;53.40;;;;;;1578665;74;1657;-67
2023/01/31 08:07:24;;;;;;;;;;;21.70;53.50;;;;;;1580967;74;787;-68
2023/01/31 08:09:26;;;;;;;;;;;21.70;53.30;;;;;;1583519;73;712;-68
2023/01/31 08:11:27;;;;;;;;;;;21.80;53.20;;;;;;1575929;74;747;-70
2023/01/31 08:13:29;;;;;;;;;;;21.70;53.10;;;;;;1575972;74;1128;-68
2023/01/31 08:15:32;;;;;;;;;;;21.70;53.20;;;;;;1579791;75;800;-69
2023/01/31 08:17:34;;;;;;;;;;;21.70;52.00;;;;;;1580019;74;1537;-68
2023/01/31 08:19:36;;;;;;;;;;;21.70;52.20;;;;;;1581840;74;709;-69
2023/01/31 08:21:37;;;;;;;;;;;21.60;52.20;;;;;;1579889;74;605;-69
2023/01/31 08:23:40;;;;;;;;;;;21.70;52.10;;;;;;1580525;73;1953;-70
2023/01/31 08:25:41;;;;;;;;;;;21.60;52.00;;;;;;1575630;74;724;-68
2023/01/31 08:27:43;;;;;;;;;;;21.60;52.20;;;;;;1586647;74;797;-68
2023/01/31 08:29:45;;;;;;;;;;;21.60;52.30;;;;;;1581559;74;790;-68
2023/01/31 08:31:47;;;;;;;;;;;21.50;52.60;;;;;;1582086;74;1538;-69
2023/01/31 08:33:52;;;;;;;;;;;21.50;52.60;;;;;;1582249;73;1112;-68
2023/01/31 08:35:53;;;;;;;;;;;21.50;52.70;;;;;;1583518;73;733;-68
2023/01/31 08:37:55;;;;;;;;;;;21.50;52.80;;;;;;1577605;73;741;-68
2023/01/31 08:39:57;;;;;;;;;;;21.50;52.80;;;;;;1578706;74;789;-68
2023/01/31 08:41:59;;;;;;;;;;;21.50;52.80;;;;;;1579018;74;855;-68
2023/01/31 08:44:02;;;;;;;;;;;21.50;53.00;;;;;;1580107;74;1967;-70
2023/01/31 08:46:05;;;;;;;;;;;21.50;53.10;;;;;;1582818;73;1507;-67
2023/01/31 08:48:06;;;;;;;;;;;21.40;53.00;;;;;;1579903;73;939;-68
2023/01/31 08:50:09;;;;;;;;;;;21.40;53.10;;;;;;1582508;73;804;-68
2023/01/31 08:52:11;;;;;;;;;;;21.40;53.20;;;;;;1580086;74;1099;-68
2023/01/31 08:54:14;;;;;;;;;;;21.40;53.30;;;;;;1575188;73;710;-68
2023/01/31 08:56:15;;;;;;;;;;;21.40;53.20;;;;;;1577846;73;793;-68
2023/01/31 08:58:17;;;;;;;;;;;21.40;53.40;;;;;;1581222;74;787;-68
2023/01/31 09:00:19;;;;;;;;;;;21.40;53.40;;;;;;1581651;73;1147;-69
2023/01/31 09:02:21;;;;;;;;;;;21.40;53.40;;;;;;1587363;72;1140;-68
2023/01/31 09:04:23;;;;;;;;;;;21.40;53.40;;;;;;1585825;73;1942;-68
2023/01/31 09:06:26;;;;;;;;;;;21.40;53.40;;;;;;1583378;74;694;-68
2023/01/31 09:08:28;;;;;;;;;;;21.40;53.50;;;;;;1579369;74;751;-68
2023/01/31 09:10:30;;;;;;;;;;;21.50;53.60;;;;;;1582058;74;722;-68
2023/01/31 09:12:33;;;;;;;;;;;21.40;53.50;;;;;;1582294;73;1200;-68
2023/01/31 09:14:35;;;;;;;;;;;21.40;53.50;;;;;;1580047;73;1428;-68
2023/01/31 09:16:37;;;;;;;;;;;21.40;53.50;;;;;;1581340;73;712;-68
2023/01/31 09:18:39;;;;;;;;;;;21.40;53.50;;;;;;1577990;75;797;-69
2023/01/31 09:20:41;;;;;;;;;;;21.40;53.60;;;;;;1579551;73;814;-68
2023/01/31 09:22:43;;;;;;;;;;;21.50;53.80;;;;;;1575620;74;1155;-68
2023/01/31 09:24:45;;;;;;;;;;;21.50;53.60;;;;;;1576311;74;1930;-68
2023/01/31 09:26:47;;;;;;;;;;;21.50;53.60;;;;;;1561875;75;1385;-68
2023/01/31 09:28:49;;;;;;;;;;;21.50;53.70;;;;;;1580945;74;831;-69
2023/01/31 09:30:54;;;;;;;;;;;21.50;53.50;;;;;;1579742;74;761;-69
2023/01/31 09:32:56;;;;;;;;;;;21.60;53.50;;;;;;1581163;74;1087;-69
2023/01/31 09:34:58;;;;;;;;;;;21.50;53.50;;;;;;1579311;74;904;-68
2023/01/31 09:37:00;;;;;;;;;;;21.60;53.40;;;;;;1575518;74;781;-69
2023/01/31 09:39:02;;;;;;;;;;;21.50;53.40;;;;;;1588562;73;727;-69
2023/01/31 09:41:04;;;;;;;;;;;21.60;53.50;;;;;;1574757;74;1614;-68
2023/01/31 09:43:08;;;;;;;;;;;21.50;53.60;;;;;;1577643;73;1242;-67
2023/01/31 09:45:17;;;;;;;;;;;21.60;53.30;;;;;;1573437;74;1927;-69
2023/01/31 09:47:27;;;;;;;;;;;21.60;53.10;;;;;;1581329;75;1866;-69
2023/01/31 09:49:30;;;;;;;;;;;21.60;52.70;;;;;;1575400;74;2296;-69
2023/01/31 09:51:33;;;;;;;;;;;21.70;52.90;;;;;;1588316;74;779;-69
2023/01/31 09:53:36;;;;;;;;;;;21.60;52.80;;;;;;1583250;73;1161;-69
2023/01/31 09:55:42;;;;;;;;;;;21.60;52.90;;;;;;1581789;74;1555;-70
2023/01/31 09:57:52;;;;;;;;;;;21.60;53.00;;;;;;1572838;74;828;-69
2023/01/31 10:00:04;;;;;;;;;;;21.70;52.90;;;;;;1585755;74;1937;-69
2023/01/31 10:02:17;;;;;;;;;;;21.60;52.60;;;;;;1553371;74;1699;-69
2023/01/31 10:04:23;;;;;;;;;;;21.60;52.60;;;;;;1576779;74;1944;-69
2023/01/31 10:06:27;;;;;;;;;;;21.60;52.80;;;;;;1581290;74;687;-69
2023/01/31 10:08:31;;;;;;;;;;;21.60;52.80;;;;;;1586240;73;700;-69
2023/01/31 10:10:47;;;;;;;;;;;21.60;52.80;;;;;;1587800;73;1533;-70
2023/01/31 10:12:49;;;;;;;;;;;21.60;52.80;;;;;;1584785;74;1291;-70
2023/01/31 10:14:52;;;;;;;;;;;21.60;52.80;;;;;;1585251;74;747;-69
2023/01/31 10:17:04;;;;;;;;;;;21.60;52.70;;;;;;1579039;74;774;-68
2023/01/31 10:19:08;;;;;;;;;;;21.80;52.80;;;;;;1585179;74;1768;-69
2023/01/31 10:21:11;;;;;;;;;;;21.80;52.60;;;;;;1581371;74;1772;-69
2023/01/31 10:23:30;;;;;;;;;;;21.80;52.60;;;;;;1586227;74;1760;-69
2023/01/31 10:25:46;;;;;;;;;;;21.80;52.40;;;;;;1585505;74;709;-69
2023/01/31 10:27:48;;;;;;;;;;;21.80;52.50;;;;;;1572627;75;1684;-70
2023/01/31 10:29:51;;;;;;;;;;;21.80;52.40;;;;;;1583012;74;747;-70
2023/01/31 10:31:57;;;;;;;;;;;21.80;52.40;;;;;;1587280;74;676;-69
2023/01/31 10:34:04;;;;;;;;;;;21.80;52.40;;;;;;1579520;73;1920;-69
2023/01/31 10:36:07;;;;;;;;;;;21.70;52.40;;;;;;1580918;73;850;-68
2023/01/31 10:38:18;;;;;;;;;;;21.70;52.50;;;;;;1581632;74;1692;-69
2023/01/31 10:40:21;;;;;;;;;;;21.70;52.50;;;;;;1580337;74;717;-69
2023/01/31 10:42:25;;;;;;;;;;;21.70;52.50;;;;;;1575033;74;1143;-69
2023/01/31 10:44:43;;;;;;;;;;;21.70;52.60;;;;;;1581978;74;1933;-69
2023/01/31 10:46:46;;;;;;;;;;;21.80;52.60;;;;;;1585529;73;696;-69
2023/01/31 10:48:48;;;;;;;;;;;21.80;52.50;;;;;;1585226;73;739;-69
2023/01/31 10:51:00;;;;;;;;;;;21.70;52.40;;;;;;1580011;74;723;-69
2023/01/31 10:53:04;;;;;;;;;;;21.80;52.50;;;;;;1577752;74;1942;-69
2023/01/31 10:55:07;;;;;;;;;;;21.70;52.50;;;;;;1576665;73;1837;-70
2023/01/31 10:57:09;;;;;;;;;;;21.80;52.50;;;;;;1586471;73;1962;-68
2023/01/31 10:59:16;;;;;;;;;;;21.80;52.40;;;;;;1593009;74;840;-68
2023/01/31 11:01:18;;;;;;;;;;;21.80;52.30;;;;;;1580470;73;1730;-68
2023/01/31 11:03:20;;;;;;;;;;;21.90;52.40;;;;;;1576422;74;1143;-68
2023/01/31 11:05:23;;;;;;;;;;;21.80;52.20;;;;;;1578958;74;1917;-67
2023/01/31 11:07:26;;;;;;;;;;;21.80;52.30;;;;;;1577145;74;757;-69
2023/01/31 11:09:29;;;;;;;;;;;21.80;52.30;;;;;;1586484;74;782;-68
2023/01/31 11:11:31;;;;;;;;;;;21.80;52.40;;;;;;1583110;73;779;-69
2023/01/31 11:13:33;;;;;;;;;;;21.80;52.20;;;;;;1580325;74;1162;-68
2023/01/31 11:15:37;;;;;;;;;;;21.80;52.10;;;;;;1581548;74;726;-68
2023/01/31 11:17:40;;;;;;;;;;;21.80;52.10;;;;;;1578374;74;1883;-68
2023/01/31 11:19:45;;;;;;;;;;;21.80;52.20;;;;;;1576961;74;1593;-68
2023/01/31 11:21:48;;;;;;;;;;;21.80;52.10;;;;;;1576785;74;736;-66
2023/01/31 11:23:51;;;;;;;;;;;21.80;52.10;;;;;;1574750;74;1966;-68
2023/01/31 11:25:52;;;;;;;;;;;21.80;52.10;;;;;;1576317;74;686;-68
2023/01/31 11:27:56;;;;;;;;;;;21.70;52.30;;;;;;1582088;74;735;-68
2023/01/31 11:29:58;;;;;;;;;;;21.70;52.40;;;;;;1585678;74;897;-68
2023/01/31 11:32:01;;;;;;;;;;;21.70;52.50;;;;;;1581526;73;926;-68
2023/01/31 11:34:03;;;;;;;;;;;21.70;52.40;;;;;;1582698;74;1561;-68
2023/01/31 11:36:09;;;;;;;;;;;21.70;52.50;;;;;;1582381;74;805;-68
2023/01/31 11:38:12;;;;;;;;;;;21.70;52.30;;;;;;1579560;74;724;-68
2023/01/31 11:40:22;;;;;;;;;;;21.70;52.40;;;;;;1584734;74;718;-68
2023/01/31 11:42:23;;;;;;;;;;;21.70;52.60;;;;;;1573718;73;1156;-68
2023/01/31 11:44:25;;;;;;;;;;;21.70;52.50;;;;;;1581491;74;1942;-68
2023/01/31 11:46:27;;;;;;;;;;;21.70;52.50;;;;;;1596977;73;801;-67
2023/01/31 11:48:32;;;;;;;;;;;21.70;52.40;;;;;;1586867;74;1613;-67
2023/01/31 11:50:36;;;;;;;;;;;21.70;52.30;;;;;;1576388;74;880;-68
2023/01/31 11:52:38;;;;;;;;;;;21.70;52.50;;;;;;1574691;74;1143;-67
2023/01/31 11:54:40;;;;;;;;;;;21.70;52.30;;;;;;1585327;74;730;-68
2023/01/31 11:56:44;;;;;;;;;;;21.80;52.20;;;;;;1575453;74;726;-67
2023/01/31 11:58:46;;;;;;;;;;;21.80;52.10;;;;;;1573380;74;1672;-68
2023/01/31 12:00:49;;;;;;;;;;;21.80;52.10;;;;;;1578580;73;633;-67
2023/01/31 12:02:53;;;;;;;;;;;21.80;52.20;;;;;;1573761;74;1533;-68
2023/01/31 12:04:55;;;;;;;;;;;21.80;52.10;;;;;;1564411;74;1945;-68
2023/01/31 12:07:00;;;;;;;;;;;21.80;52.10;;;;;;1578798;74;758;-68
2023/01/31 12:09:03;;;;;;;;;;;21.80;52.20;;;;;;1584237;73;736;-68
2023/01/31 12:11:06;;;;;;;;;;;21.80;52.20;;;;;;1582300;74;698;-70
2023/01/31 12:13:10;;;;;;;;;;;21.80;52.30;;;;;;1576700;74;1255;-69
2023/01/31 12:15:16;;;;;;;;;;;21.80;52.30;;;;;;1579150;74;1922;-66
2023/01/31 12:17:19;;;;;;;;;;;21.80;52.20;;;;;;1577170;74;1439;-67
2023/01/31 12:19:24;;;;;;;;;;;21.80;52.10;;;;;;1580400;74;787;-66
2023/01/31 12:21:46;;;;;;;;;;;21.80;52.20;;;;;;1578303;74;738;-67
2023/01/31 12:24:08;;;;;;;;;;;21.80;52.30;;;;;;1578789;74;1896;-66